sensor_id;sensor_type;location;lat;lon;timestamp;P1;durP1;ratioP1;P2;durP2;ratioP2
14592;SDS011;7383;52.354;9.756;2023-07-29T00:01:58;1.30;;;1.20;;
14592;SDS011;7383;52.354;9.756;2023-07-29T00:04:24;1.30;;;1.30;;
14592;SDS011;7383;52.354;9.756;2023-07-29T00:06:51;1.38;;;1.38;;
14592;SDS011;7383;52.354;9.756;2023-07-29T00:09:19;1.50;;;1.40;;
14592;SDS011;7383;52.354;9.756;2023-07-29T00:11:46;1.30;;;1.30;;
14592;SDS011;7383;52.354;9.756;2023-07-29T00:14:12;1.42;;;1.33;;
14592;SDS011;7383;52.354;9.756;2023-07-29T00:16:39;1.25;;;1.25;;
14592;SDS011;7383;52.354;9.756;2023-07-29T00:19:06;1.27;;;1.27;;
14592;SDS011;7383;52.354;9.756;2023-07-29T00:21:34;1.00;;;1.00;;
14592;SDS011;7383;52.354;9.756;2023-07-29T00:24:00;1.30;;;1.30;;
14592;SDS011;7383;52.354;9.756;2023-07-29T00:26:29;1.50;;;1.50;;
14592;SDS011;7383;52.354;9.756;2023-07-29T00:28:55;1.10;;;1.10;;
14592;SDS011;7383;52.354;9.756;2023-07-29T00:31:22;1.00;;;1.00;;
14592;SDS011;7383;52.354;9.756;2023-07-29T00:33:48;1.10;;;1.10;;
14592;SDS011;7383;52.354;9.756;2023-07-29T00:36:15;0.95;;;0.95;;
14592;SDS011;7383;52.354;9.756;2023-07-29T00:38:41;1.08;;;1.00;;
14592;SDS011;7383;52.354;9.756;2023-07-29T00:41:08;1.10;;;1.10;;
14592;SDS011;7383;52.354;9.756;2023-07-29T00:43:39;1.60;;;1.50;;
14592;SDS011;7383;52.354;9.756;2023-07-29T00:46:06;1.20;;;1.20;;
14592;SDS011;7383;52.354;9.756;2023-07-29T00:48:34;1.25;;;1.17;;
14592;SDS011;7383;52.354;9.756;2023-07-29T00:51:01;1.38;;;1.38;;
14592;SDS011;7383;52.354;9.756;2023-07-29T00:53:28;1.40;;;1.40;;
14592;SDS011;7383;52.354;9.756;2023-07-29T00:55:54;1.23;;;1.23;;
14592;SDS011;7383;52.354;9.756;2023-07-29T00:58:21;1.38;;;1.38;;
14592;SDS011;7383;52.354;9.756;2023-07-29T01:00:49;1.10;;;1.10;;
14592;SDS011;7383;52.354;9.756;2023-07-29T01:03:16;0.90;;;0.90;;
14592;SDS011;7383;52.354;9.756;2023-07-29T01:05:46;1.20;;;1.20;;
14592;SDS011;7383;52.354;9.756;2023-07-29T01:08:25;1.60;;;1.50;;
14592;SDS011;7383;52.354;9.756;2023-07-29T01:10:58;1.20;;;1.20;;
14592;SDS011;7383;52.354;9.756;2023-07-29T01:13:31;1.17;;;1.17;;
14592;SDS011;7383;52.354;9.756;2023-07-29T01:16:06;1.13;;;1.13;;
14592;SDS011;7383;52.354;9.756;2023-07-29T01:18:36;1.10;;;1.10;;
14592;SDS011;7383;52.354;9.756;2023-07-29T01:21:07;1.00;;;1.00;;
14592;SDS011;7383;52.354;9.756;2023-07-29T01:23:36;1.30;;;1.20;;
14592;SDS011;7383;52.354;9.756;2023-07-29T01:26:03;1.15;;;1.15;;
14592;SDS011;7383;52.354;9.756;2023-07-29T01:28:30;1.20;;;1.20;;
14592;SDS011;7383;52.354;9.756;2023-07-29T01:31:01;1.27;;;1.27;;
14592;SDS011;7383;52.354;9.756;2023-07-29T01:33:34;1.13;;;1.13;;
14592;SDS011;7383;52.354;9.756;2023-07-29T01:36:06;1.20;;;1.20;;
14592;SDS011;7383;52.354;9.756;2023-07-29T01:38:40;1.05;;;1.05;;
14592;SDS011;7383;52.354;9.756;2023-07-29T01:41:08;2.20;;;1.45;;
14592;SDS011;7383;52.354;9.756;2023-07-29T01:43:35;1.50;;;1.40;;
14592;SDS011;7383;52.354;9.756;2023-07-29T01:46:09;1.17;;;1.17;;
14592;SDS011;7383;52.354;9.756;2023-07-29T01:48:35;1.20;;;1.20;;
14592;SDS011;7383;52.354;9.756;2023-07-29T01:51:02;1.13;;;1.13;;
14592;SDS011;7383;52.354;9.756;2023-07-29T01:53:29;1.20;;;1.20;;
14592;SDS011;7383;52.354;9.756;2023-07-29T01:55:57;1.40;;;1.30;;
14592;SDS011;7383;52.354;9.756;2023-07-29T01:58:23;1.40;;;1.40;;
14592;SDS011;7383;52.354;9.756;2023-07-29T02:00:50;1.63;;;1.55;;
14592;SDS011;7383;52.354;9.756;2023-07-29T02:03:17;1.40;;;1.30;;
14592;SDS011;7383;52.354;9.756;2023-07-29T02:05:44;1.58;;;1.48;;
14592;SDS011;7383;52.354;9.756;2023-07-29T02:08:11;1.30;;;1.30;;
14592;SDS011;7383;52.354;9.756;2023-07-29T02:10:37;1.40;;;1.40;;
14592;SDS011;7383;52.354;9.756;2023-07-29T02:13:05;1.35;;;1.35;;
14592;SDS011;7383;52.354;9.756;2023-07-29T02:15:32;1.38;;;1.38;;
14592;SDS011;7383;52.354;9.756;2023-07-29T02:17:59;1.20;;;1.20;;
14592;SDS011;7383;52.354;9.756;2023-07-29T02:20:27;1.33;;;1.33;;
14592;SDS011;7383;52.354;9.756;2023-07-29T02:22:53;1.20;;;1.20;;
14592;SDS011;7383;52.354;9.756;2023-07-29T02:25:20;1.38;;;1.38;;
14592;SDS011;7383;52.354;9.756;2023-07-29T02:27:46;1.50;;;1.50;;
14592;SDS011;7383;52.354;9.756;2023-07-29T02:30:17;1.20;;;1.20;;
14592;SDS011;7383;52.354;9.756;2023-07-29T02:32:43;1.13;;;1.13;;
14592;SDS011;7383;52.354;9.756;2023-07-29T02:35:10;1.17;;;1.17;;
14592;SDS011;7383;52.354;9.756;2023-07-29T02:37:37;1.42;;;1.40;;
14592;SDS011;7383;52.354;9.756;2023-07-29T02:40:03;1.13;;;1.10;;
14592;SDS011;7383;52.354;9.756;2023-07-29T02:42:31;1.40;;;1.40;;
14592;SDS011;7383;52.354;9.756;2023-07-29T02:44:57;1.20;;;1.20;;
14592;SDS011;7383;52.354;9.756;2023-07-29T02:47:26;1.40;;;1.40;;
14592;SDS011;7383;52.354;9.756;2023-07-29T02:49:52;1.50;;;1.50;;
14592;SDS011;7383;52.354;9.756;2023-07-29T02:52:19;1.10;;;1.10;;
14592;SDS011;7383;52.354;9.756;2023-07-29T02:54:45;1.17;;;1.17;;
14592;SDS011;7383;52.354;9.756;2023-07-29T02:57:12;1.40;;;1.30;;
14592;SDS011;7383;52.354;9.756;2023-07-29T02:59:39;1.02;;;1.02;;
14592;SDS011;7383;52.354;9.756;2023-07-29T03:02:06;1.25;;;1.25;;
14592;SDS011;7383;52.354;9.756;2023-07-29T03:04:34;1.20;;;1.20;;
14592;SDS011;7383;52.354;9.756;2023-07-29T03:07:00;1.23;;;1.13;;
14592;SDS011;7383;52.354;9.756;2023-07-29T03:09:27;1.23;;;1.23;;
14592;SDS011;7383;52.354;9.756;2023-07-29T03:11:54;1.40;;;1.30;;
14592;SDS011;7383;52.354;9.756;2023-07-29T03:14:21;1.60;;;1.50;;
14592;SDS011;7383;52.354;9.756;2023-07-29T03:16:48;1.02;;;1.02;;
14592;SDS011;7383;52.354;9.756;2023-07-29T03:19:14;1.15;;;1.05;;
14592;SDS011;7383;52.354;9.756;2023-07-29T03:21:42;1.20;;;1.20;;
14592;SDS011;7383;52.354;9.756;2023-07-29T03:24:09;1.30;;;1.30;;
14592;SDS011;7383;52.354;9.756;2023-07-29T03:26:35;1.48;;;1.48;;
14592;SDS011;7383;52.354;9.756;2023-07-29T03:29:02;1.10;;;1.10;;
14592;SDS011;7383;52.354;9.756;2023-07-29T03:31:28;1.20;;;1.20;;
14592;SDS011;7383;52.354;9.756;2023-07-29T03:33:55;1.48;;;1.20;;
14592;SDS011;7383;52.354;9.756;2023-07-29T03:36:21;1.40;;;1.30;;
14592;SDS011;7383;52.354;9.756;2023-07-29T03:38:54;1.48;;;1.38;;
14592;SDS011;7383;52.354;9.756;2023-07-29T03:41:21;1.33;;;1.33;;
14592;SDS011;7383;52.354;9.756;2023-07-29T03:43:48;1.13;;;1.13;;
14592;SDS011;7383;52.354;9.756;2023-07-29T03:46:14;0.95;;;0.95;;
14592;SDS011;7383;52.354;9.756;2023-07-29T03:48:44;1.52;;;1.42;;
14592;SDS011;7383;52.354;9.756;2023-07-29T03:51:11;1.50;;;1.17;;
14592;SDS011;7383;52.354;9.756;2023-07-29T03:53:37;1.13;;;1.13;;
14592;SDS011;7383;52.354;9.756;2023-07-29T03:56:05;1.05;;;1.05;;
14592;SDS011;7383;52.354;9.756;2023-07-29T03:58:32;1.15;;;1.15;;
14592;SDS011;7383;52.354;9.756;2023-07-29T04:00:58;1.30;;;1.30;;
14592;SDS011;7383;52.354;9.756;2023-07-29T04:03:25;1.52;;;1.50;;
14592;SDS011;7383;52.354;9.756;2023-07-29T04:05:52;1.33;;;1.33;;
14592;SDS011;7383;52.354;9.756;2023-07-29T04:08:19;1.27;;;1.27;;
14592;SDS011;7383;52.354;9.756;2023-07-29T04:10:45;1.20;;;1.20;;
14592;SDS011;7383;52.354;9.756;2023-07-29T04:13:13;1.17;;;1.10;;
14592;SDS011;7383;52.354;9.756;2023-07-29T04:15:40;1.33;;;1.23;;
14592;SDS011;7383;52.354;9.756;2023-07-29T04:18:06;1.30;;;1.20;;
14592;SDS011;7383;52.354;9.756;2023-07-29T04:20:33;1.40;;;1.30;;
14592;SDS011;7383;52.354;9.756;2023-07-29T04:23:00;1.33;;;1.33;;
14592;SDS011;7383;52.354;9.756;2023-07-29T04:25:27;1.23;;;1.23;;
14592;SDS011;7383;52.354;9.756;2023-07-29T04:27:53;1.10;;;1.10;;
14592;SDS011;7383;52.354;9.756;2023-07-29T04:30:23;1.27;;;1.27;;
14592;SDS011;7383;52.354;9.756;2023-07-29T04:32:50;1.25;;;1.25;;
14592;SDS011;7383;52.354;9.756;2023-07-29T04:35:17;1.00;;;1.00;;
14592;SDS011;7383;52.354;9.756;2023-07-29T04:37:43;1.08;;;1.08;;
14592;SDS011;7383;52.354;9.756;2023-07-29T04:40:10;1.60;;;1.50;;
14592;SDS011;7383;52.354;9.756;2023-07-29T04:42:37;1.70;;;1.60;;
14592;SDS011;7383;52.354;9.756;2023-07-29T04:45:05;1.63;;;1.52;;
14592;SDS011;7383;52.354;9.756;2023-07-29T04:47:33;1.30;;;1.30;;
14592;SDS011;7383;52.354;9.756;2023-07-29T04:49:59;1.40;;;1.40;;
14592;SDS011;7383;52.354;9.756;2023-07-29T04:52:26;1.20;;;1.20;;
14592;SDS011;7383;52.354;9.756;2023-07-29T04:54:52;1.20;;;1.20;;
14592;SDS011;7383;52.354;9.756;2023-07-29T04:57:19;1.30;;;1.30;;
14592;SDS011;7383;52.354;9.756;2023-07-29T04:59:46;1.27;;;1.17;;
14592;SDS011;7383;52.354;9.756;2023-07-29T05:02:12;1.40;;;1.40;;
14592;SDS011;7383;52.354;9.756;2023-07-29T05:04:41;1.17;;;1.17;;
14592;SDS011;7383;52.354;9.756;2023-07-29T05:07:08;1.35;;;1.35;;
14592;SDS011;7383;52.354;9.756;2023-07-29T05:09:35;1.20;;;1.20;;
14592;SDS011;7383;52.354;9.756;2023-07-29T05:12:02;1.23;;;1.23;;
14592;SDS011;7383;52.354;9.756;2023-07-29T05:14:28;1.38;;;1.38;;
14592;SDS011;7383;52.354;9.756;2023-07-29T05:16:55;1.10;;;1.10;;
14592;SDS011;7383;52.354;9.756;2023-07-29T05:19:22;1.30;;;1.30;;
14592;SDS011;7383;52.354;9.756;2023-07-29T05:21:50;1.38;;;1.38;;
14592;SDS011;7383;52.354;9.756;2023-07-29T05:24:16;1.20;;;1.17;;
14592;SDS011;7383;52.354;9.756;2023-07-29T05:26:43;1.20;;;1.20;;
14592;SDS011;7383;52.354;9.756;2023-07-29T05:29:09;1.40;;;1.30;;
14592;SDS011;7383;52.354;9.756;2023-07-29T05:31:36;1.52;;;1.45;;
14592;SDS011;7383;52.354;9.756;2023-07-29T05:34:02;1.50;;;1.40;;
14592;SDS011;7383;52.354;9.756;2023-07-29T05:36:29;1.48;;;1.38;;
14592;SDS011;7383;52.354;9.756;2023-07-29T05:38:57;1.10;;;1.10;;
14592;SDS011;7383;52.354;9.756;2023-07-29T05:41:23;1.15;;;1.15;;
14592;SDS011;7383;52.354;9.756;2023-07-29T05:43:51;1.38;;;1.30;;
14592;SDS011;7383;52.354;9.756;2023-07-29T05:46:17;1.70;;;1.52;;
14592;SDS011;7383;52.354;9.756;2023-07-29T05:48:44;1.33;;;1.33;;
14592;SDS011;7383;52.354;9.756;2023-07-29T05:51:11;1.50;;;1.40;;
14592;SDS011;7383;52.354;9.756;2023-07-29T05:53:37;1.70;;;1.60;;
14592;SDS011;7383;52.354;9.756;2023-07-29T05:56:05;1.40;;;1.40;;
14592;SDS011;7383;52.354;9.756;2023-07-29T05:58:32;1.23;;;1.23;;
14592;SDS011;7383;52.354;9.756;2023-07-29T06:00:58;1.70;;;1.60;;
14592;SDS011;7383;52.354;9.756;2023-07-29T06:03:26;1.20;;;1.20;;
14592;SDS011;7383;52.354;9.756;2023-07-29T06:05:52;1.50;;;1.40;;
14592;SDS011;7383;52.354;9.756;2023-07-29T06:08:20;1.40;;;1.30;;
14592;SDS011;7383;52.354;9.756;2023-07-29T06:10:47;2.15;;;1.45;;
14592;SDS011;7383;52.354;9.756;2023-07-29T06:13:15;1.45;;;1.45;;
14592;SDS011;7383;52.354;9.756;2023-07-29T06:15:41;1.70;;;1.60;;
14592;SDS011;7383;52.354;9.756;2023-07-29T06:18:08;1.58;;;1.48;;
14592;SDS011;7383;52.354;9.756;2023-07-29T06:20:34;1.25;;;1.25;;
14592;SDS011;7383;52.354;9.756;2023-07-29T06:23:01;1.52;;;1.52;;
14592;SDS011;7383;52.354;9.756;2023-07-29T06:25:28;1.20;;;1.20;;
14592;SDS011;7383;52.354;9.756;2023-07-29T06:27:54;1.20;;;1.20;;
14592;SDS011;7383;52.354;9.756;2023-07-29T06:30:24;1.50;;;1.40;;
14592;SDS011;7383;52.354;9.756;2023-07-29T06:32:51;1.45;;;1.45;;
14592;SDS011;7383;52.354;9.756;2023-07-29T06:35:17;1.40;;;1.40;;
14592;SDS011;7383;52.354;9.756;2023-07-29T06:37:44;1.30;;;1.30;;
14592;SDS011;7383;52.354;9.756;2023-07-29T06:40:10;1.58;;;1.48;;
14592;SDS011;7383;52.354;9.756;2023-07-29T06:42:38;1.88;;;1.77;;
14592;SDS011;7383;52.354;9.756;2023-07-29T06:45:05;1.63;;;1.60;;
14592;SDS011;7383;52.354;9.756;2023-07-29T06:47:33;1.40;;;1.40;;
14592;SDS011;7383;52.354;9.756;2023-07-29T06:50:00;1.55;;;1.50;;
14592;SDS011;7383;52.354;9.756;2023-07-29T06:52:27;1.60;;;1.50;;
14592;SDS011;7383;52.354;9.756;2023-07-29T06:54:53;1.70;;;1.55;;
14592;SDS011;7383;52.354;9.756;2023-07-29T06:57:20;2.00;;;1.90;;
14592;SDS011;7383;52.354;9.756;2023-07-29T06:59:46;1.20;;;1.20;;
14592;SDS011;7383;52.354;9.756;2023-07-29T07:02:13;1.60;;;1.60;;
14592;SDS011;7383;52.354;9.756;2023-07-29T07:04:41;1.45;;;1.45;;
14592;SDS011;7383;52.354;9.756;2023-07-29T07:07:07;1.42;;;1.42;;
14592;SDS011;7383;52.354;9.756;2023-07-29T07:09:34;1.40;;;1.30;;
14592;SDS011;7383;52.354;9.756;2023-07-29T07:12:00;1.40;;;1.40;;
14592;SDS011;7383;52.354;9.756;2023-07-29T07:14:27;2.35;;;1.48;;
14592;SDS011;7383;52.354;9.756;2023-07-29T07:16:53;1.65;;;1.55;;
14592;SDS011;7383;52.354;9.756;2023-07-29T07:19:20;1.38;;;1.38;;
14592;SDS011;7383;52.354;9.756;2023-07-29T07:21:48;1.83;;;1.73;;
14592;SDS011;7383;52.354;9.756;2023-07-29T07:24:14;1.70;;;1.60;;
14592;SDS011;7383;52.354;9.756;2023-07-29T07:26:41;1.48;;;1.40;;
14592;SDS011;7383;52.354;9.756;2023-07-29T07:29:07;1.45;;;1.42;;
14592;SDS011;7383;52.354;9.756;2023-07-29T07:31:34;1.80;;;1.70;;
14592;SDS011;7383;52.354;9.756;2023-07-29T07:34:00;1.63;;;1.52;;
14592;SDS011;7383;52.354;9.756;2023-07-29T07:36:28;1.70;;;1.60;;
14592;SDS011;7383;52.354;9.756;2023-07-29T07:38:57;1.23;;;1.23;;
14592;SDS011;7383;52.354;9.756;2023-07-29T07:41:23;1.55;;;1.45;;
14592;SDS011;7383;52.354;9.756;2023-07-29T07:43:50;1.35;;;1.35;;
14592;SDS011;7383;52.354;9.756;2023-07-29T07:46:16;1.60;;;1.50;;
14592;SDS011;7383;52.354;9.756;2023-07-29T07:48:43;1.58;;;1.48;;
14592;SDS011;7383;52.354;9.756;2023-07-29T07:51:10;1.52;;;1.48;;
14592;SDS011;7383;52.354;9.756;2023-07-29T07:53:37;1.65;;;1.55;;
14592;SDS011;7383;52.354;9.756;2023-07-29T07:56:05;1.70;;;1.60;;
14592;SDS011;7383;52.354;9.756;2023-07-29T07:58:32;1.42;;;1.33;;
14592;SDS011;7383;52.354;9.756;2023-07-29T08:01:02;1.48;;;1.48;;
14592;SDS011;7383;52.354;9.756;2023-07-29T08:03:29;1.30;;;1.30;;
14592;SDS011;7383;52.354;9.756;2023-07-29T08:05:56;1.25;;;1.25;;
14592;SDS011;7383;52.354;9.756;2023-07-29T08:08:24;1.40;;;1.40;;
14592;SDS011;7383;52.354;9.756;2023-07-29T08:10:52;2.15;;;1.45;;
14592;SDS011;7383;52.354;9.756;2023-07-29T08:13:20;1.58;;;1.48;;
14592;SDS011;7383;52.354;9.756;2023-07-29T08:15:47;1.83;;;1.60;;
14592;SDS011;7383;52.354;9.756;2023-07-29T08:18:14;1.50;;;1.50;;
14592;SDS011;7383;52.354;9.756;2023-07-29T08:20:40;1.23;;;1.23;;
14592;SDS011;7383;52.354;9.756;2023-07-29T08:23:07;1.90;;;1.80;;
14592;SDS011;7383;52.354;9.756;2023-07-29T08:25:33;1.50;;;1.40;;
14592;SDS011;7383;52.354;9.756;2023-07-29T08:28:00;1.88;;;1.75;;
14592;SDS011;7383;52.354;9.756;2023-07-29T08:30:28;1.88;;;1.77;;
14592;SDS011;7383;52.354;9.756;2023-07-29T08:32:55;1.92;;;1.83;;
14592;SDS011;7383;52.354;9.756;2023-07-29T08:46:59;2.20;;;2.00;;
14592;SDS011;7383;52.354;9.756;2023-07-29T08:49:26;1.83;;;1.73;;
14592;SDS011;7383;52.354;9.756;2023-07-29T08:51:53;2.00;;;1.90;;
14592;SDS011;7383;52.354;9.756;2023-07-29T08:54:20;2.00;;;1.90;;
14592;SDS011;7383;52.354;9.756;2023-07-29T08:56:48;2.10;;;2.00;;
14592;SDS011;7383;52.354;9.756;2023-07-29T08:59:15;1.77;;;1.77;;
14592;SDS011;7383;52.354;9.756;2023-07-29T09:01:42;2.25;;;2.05;;
14592;SDS011;7383;52.354;9.756;2023-07-29T09:04:11;1.80;;;1.80;;
14592;SDS011;7383;52.354;9.756;2023-07-29T09:06:38;2.05;;;1.95;;
14592;SDS011;7383;52.354;9.756;2023-07-29T09:09:06;1.70;;;1.70;;
14592;SDS011;7383;52.354;9.756;2023-07-29T09:11:34;2.00;;;1.90;;
14592;SDS011;7383;52.354;9.756;2023-07-29T09:14:01;1.95;;;1.85;;
14592;SDS011;7383;52.354;9.756;2023-07-29T09:16:28;1.42;;;1.42;;
14592;SDS011;7383;52.354;9.756;2023-07-29T09:18:55;1.90;;;1.80;;
14592;SDS011;7383;52.354;9.756;2023-07-29T09:21:28;1.80;;;1.75;;
14592;SDS011;7383;52.354;9.756;2023-07-29T09:23:56;1.63;;;1.60;;
14592;SDS011;7383;52.354;9.756;2023-07-29T09:26:24;1.48;;;1.48;;
14592;SDS011;7383;52.354;9.756;2023-07-29T09:28:55;1.80;;;1.77;;
14592;SDS011;7383;52.354;9.756;2023-07-29T09:31:22;1.70;;;1.70;;
14592;SDS011;7383;52.354;9.756;2023-07-29T09:33:50;1.92;;;1.85;;
14592;SDS011;7383;52.354;9.756;2023-07-29T09:36:21;2.10;;;2.00;;
14592;SDS011;7383;52.354;9.756;2023-07-29T09:38:50;2.30;;;1.90;;
14592;SDS011;7383;52.354;9.756;2023-07-29T09:41:19;2.55;;;2.40;;
14592;SDS011;7383;52.354;9.756;2023-07-29T09:43:47;2.58;;;2.45;;
14592;SDS011;7383;52.354;9.756;2023-07-29T09:46:22;3.10;;;2.90;;
14592;SDS011;7383;52.354;9.756;2023-07-29T09:48:49;2.90;;;2.80;;
14592;SDS011;7383;52.354;9.756;2023-07-29T09:51:19;3.10;;;3.00;;
14592;SDS011;7383;52.354;9.756;2023-07-29T09:53:47;3.85;;;3.55;;
14592;SDS011;7383;52.354;9.756;2023-07-29T09:56:17;4.88;;;4.57;;
14592;SDS011;7383;52.354;9.756;2023-07-29T09:58:44;5.00;;;4.70;;
14592;SDS011;7383;52.354;9.756;2023-07-29T10:01:11;5.07;;;4.78;;
14592;SDS011;7383;52.354;9.756;2023-07-29T10:03:38;5.35;;;5.00;;
14592;SDS011;7383;52.354;9.756;2023-07-29T10:06:06;4.60;;;4.30;;
14592;SDS011;7383;52.354;9.756;2023-07-29T10:08:33;4.57;;;4.28;;
14592;SDS011;7383;52.354;9.756;2023-07-29T10:11:05;4.97;;;4.68;;
14592;SDS011;7383;52.354;9.756;2023-07-29T10:13:33;5.07;;;4.78;;
14592;SDS011;7383;52.354;9.756;2023-07-29T10:16:00;5.35;;;5.00;;
14592;SDS011;7383;52.354;9.756;2023-07-29T10:18:28;4.80;;;4.50;;
14592;SDS011;7383;52.354;9.756;2023-07-29T10:20:56;5.22;;;4.82;;
14592;SDS011;7383;52.354;9.756;2023-07-29T10:23:24;5.10;;;4.80;;
14592;SDS011;7383;52.354;9.756;2023-07-29T10:25:54;5.50;;;5.20;;
14592;SDS011;7383;52.354;9.756;2023-07-29T10:28:25;4.60;;;4.30;;
14592;SDS011;7383;52.354;9.756;2023-07-29T10:30:57;5.03;;;4.72;;
14592;SDS011;7383;52.354;9.756;2023-07-29T10:33:25;4.45;;;4.15;;
14592;SDS011;7383;52.354;9.756;2023-07-29T10:35:51;5.10;;;4.80;;
14592;SDS011;7383;52.354;9.756;2023-07-29T10:38:18;4.95;;;4.65;;
14592;SDS011;7383;52.354;9.756;2023-07-29T10:40:48;5.00;;;4.70;;
14592;SDS011;7383;52.354;9.756;2023-07-29T10:43:18;4.07;;;3.88;;
14592;SDS011;7383;52.354;9.756;2023-07-29T10:45:51;3.92;;;3.63;;
14592;SDS011;7383;52.354;9.756;2023-07-29T10:51:21;3.53;;;3.33;;
14592;SDS011;7383;52.354;9.756;2023-07-29T10:53:50;4.10;;;3.88;;
14592;SDS011;7383;52.354;9.756;2023-07-29T10:56:24;3.42;;;3.22;;
14592;SDS011;7383;52.354;9.756;2023-07-29T10:58:56;3.30;;;3.10;;
14592;SDS011;7383;52.354;9.756;2023-07-29T11:01:34;3.47;;;3.28;;
14592;SDS011;7383;52.354;9.756;2023-07-29T11:07:01;3.30;;;3.10;;
14592;SDS011;7383;52.354;9.756;2023-07-29T11:09:51;2.80;;;2.70;;
14592;SDS011;7383;52.354;9.756;2023-07-29T11:12:36;3.30;;;3.10;;
14592;SDS011;7383;52.354;9.756;2023-07-29T11:15:04;2.72;;;2.63;;
14592;SDS011;7383;52.354;9.756;2023-07-29T11:17:41;2.90;;;2.80;;
14592;SDS011;7383;52.354;9.756;2023-07-29T11:20:09;2.70;;;2.50;;
14592;SDS011;7383;52.354;9.756;2023-07-29T11:22:37;2.47;;;2.30;;
14592;SDS011;7383;52.354;9.756;2023-07-29T11:25:04;2.20;;;2.10;;
14592;SDS011;7383;52.354;9.756;2023-07-29T11:27:31;2.33;;;2.22;;
14592;SDS011;7383;52.354;9.756;2023-07-29T11:29:58;2.05;;;1.95;;
14592;SDS011;7383;52.354;9.756;2023-07-29T11:32:26;2.40;;;2.20;;
14592;SDS011;7383;52.354;9.756;2023-07-29T11:34:54;2.10;;;1.90;;
14592;SDS011;7383;52.354;9.756;2023-07-29T11:37:22;1.95;;;1.85;;
14592;SDS011;7383;52.354;9.756;2023-07-29T11:39:49;1.95;;;1.85;;
14592;SDS011;7383;52.354;9.756;2023-07-29T11:42:16;1.63;;;1.60;;
14592;SDS011;7383;52.354;9.756;2023-07-29T11:44:43;1.60;;;1.60;;
14592;SDS011;7383;52.354;9.756;2023-07-29T11:47:12;1.52;;;1.42;;
14592;SDS011;7383;52.354;9.756;2023-07-29T11:49:40;1.20;;;1.20;;
14592;SDS011;7383;52.354;9.756;2023-07-29T11:52:09;1.00;;;1.00;;
14592;SDS011;7383;52.354;9.756;2023-07-29T11:54:37;0.90;;;0.90;;
14592;SDS011;7383;52.354;9.756;2023-07-29T11:57:07;1.05;;;1.05;;
14592;SDS011;7383;52.354;9.756;2023-07-29T11:59:35;0.75;;;0.75;;
14592;SDS011;7383;52.354;9.756;2023-07-29T12:02:05;0.93;;;0.90;;
14592;SDS011;7383;52.354;9.756;2023-07-29T12:04:34;0.90;;;0.90;;
14592;SDS011;7383;52.354;9.756;2023-07-29T12:07:02;1.05;;;1.05;;
14592;SDS011;7383;52.354;9.756;2023-07-29T12:09:31;1.10;;;1.00;;
14592;SDS011;7383;52.354;9.756;2023-07-29T12:11:58;0.90;;;0.90;;
14592;SDS011;7383;52.354;9.756;2023-07-29T12:14:25;0.80;;;0.80;;
14592;SDS011;7383;52.354;9.756;2023-07-29T12:16:53;0.80;;;0.80;;
14592;SDS011;7383;52.354;9.756;2023-07-29T12:19:20;0.80;;;0.80;;
14592;SDS011;7383;52.354;9.756;2023-07-29T12:21:47;0.80;;;0.80;;
14592;SDS011;7383;52.354;9.756;2023-07-29T12:24:14;0.65;;;0.65;;
14592;SDS011;7383;52.354;9.756;2023-07-29T12:26:42;0.82;;;0.82;;
14592;SDS011;7383;52.354;9.756;2023-07-29T12:29:12;0.60;;;0.60;;
14592;SDS011;7383;52.354;9.756;2023-07-29T12:31:39;0.40;;;0.40;;
14592;SDS011;7383;52.354;9.756;2023-07-29T12:34:06;0.70;;;0.70;;
14592;SDS011;7383;52.354;9.756;2023-07-29T12:36:41;0.90;;;0.80;;
14592;SDS011;7383;52.354;9.756;2023-07-29T12:39:15;0.95;;;0.90;;
14592;SDS011;7383;52.354;9.756;2023-07-29T12:41:45;0.80;;;0.77;;
14592;SDS011;7383;52.354;9.756;2023-07-29T12:44:11;0.90;;;0.90;;
14592;SDS011;7383;52.354;9.756;2023-07-29T12:46:38;0.65;;;0.65;;
14592;SDS011;7383;52.354;9.756;2023-07-29T12:49:04;0.90;;;0.90;;
14592;SDS011;7383;52.354;9.756;2023-07-29T12:51:31;1.00;;;0.70;;
14592;SDS011;7383;52.354;9.756;2023-07-29T12:53:58;0.88;;;0.88;;
14592;SDS011;7383;52.354;9.756;2023-07-29T12:56:24;0.70;;;0.70;;
14592;SDS011;7383;52.354;9.756;2023-07-29T12:58:52;0.80;;;0.60;;
14592;SDS011;7383;52.354;9.756;2023-07-29T13:01:19;0.60;;;0.60;;
14592;SDS011;7383;52.354;9.756;2023-07-29T13:03:46;0.88;;;0.88;;
14592;SDS011;7383;52.354;9.756;2023-07-29T13:06:14;0.65;;;0.63;;
14592;SDS011;7383;52.354;9.756;2023-07-29T13:08:41;0.75;;;0.75;;
14592;SDS011;7383;52.354;9.756;2023-07-29T13:11:08;0.68;;;0.68;;
14592;SDS011;7383;52.354;9.756;2023-07-29T13:13:35;1.27;;;0.65;;
14592;SDS011;7383;52.354;9.756;2023-07-29T13:16:05;0.80;;;0.80;;
14592;SDS011;7383;52.354;9.756;2023-07-29T13:18:32;0.55;;;0.55;;
14592;SDS011;7383;52.354;9.756;2023-07-29T13:21:02;0.68;;;0.68;;
14592;SDS011;7383;52.354;9.756;2023-07-29T13:23:29;0.77;;;0.77;;
14592;SDS011;7383;52.354;9.756;2023-07-29T13:25:55;0.65;;;0.65;;
14592;SDS011;7383;52.354;9.756;2023-07-29T13:28:23;0.90;;;0.70;;
14592;SDS011;7383;52.354;9.756;2023-07-29T13:30:50;0.57;;;0.57;;
14592;SDS011;7383;52.354;9.756;2023-07-29T13:33:18;1.17;;;0.60;;
14592;SDS011;7383;52.354;9.756;2023-07-29T13:35:45;0.50;;;0.50;;
14592;SDS011;7383;52.354;9.756;2023-07-29T13:38:12;0.52;;;0.52;;
14592;SDS011;7383;52.354;9.756;2023-07-29T13:40:39;0.70;;;0.70;;
14592;SDS011;7383;52.354;9.756;2023-07-29T13:43:05;0.55;;;0.55;;
14592;SDS011;7383;52.354;9.756;2023-07-29T13:45:33;0.60;;;0.60;;
14592;SDS011;7383;52.354;9.756;2023-07-29T13:47:59;0.65;;;0.65;;
14592;SDS011;7383;52.354;9.756;2023-07-29T13:50:27;0.60;;;0.60;;
14592;SDS011;7383;52.354;9.756;2023-07-29T13:52:55;0.75;;;0.75;;
14592;SDS011;7383;52.354;9.756;2023-07-29T13:55:22;0.60;;;0.60;;
14592;SDS011;7383;52.354;9.756;2023-07-29T13:57:48;0.60;;;0.60;;
14592;SDS011;7383;52.354;9.756;2023-07-29T14:00:15;0.68;;;0.68;;
14592;SDS011;7383;52.354;9.756;2023-07-29T14:02:42;0.77;;;0.77;;
14592;SDS011;7383;52.354;9.756;2023-07-29T14:05:08;0.63;;;0.63;;
14592;SDS011;7383;52.354;9.756;2023-07-29T14:07:38;0.50;;;0.50;;
14592;SDS011;7383;52.354;9.756;2023-07-29T14:10:05;0.90;;;0.70;;
14592;SDS011;7383;52.354;9.756;2023-07-29T14:12:32;0.70;;;0.70;;
14592;SDS011;7383;52.354;9.756;2023-07-29T14:14:59;0.73;;;0.60;;
14592;SDS011;7383;52.354;9.756;2023-07-29T14:17:26;0.60;;;0.60;;
14592;SDS011;7383;52.354;9.756;2023-07-29T14:19:52;0.75;;;0.75;;
14592;SDS011;7383;52.354;9.756;2023-07-29T14:22:22;0.75;;;0.75;;
14592;SDS011;7383;52.354;9.756;2023-07-29T14:24:50;0.73;;;0.73;;
14592;SDS011;7383;52.354;9.756;2023-07-29T14:27:16;0.70;;;0.70;;
14592;SDS011;7383;52.354;9.756;2023-07-29T14:29:43;0.70;;;0.70;;
14592;SDS011;7383;52.354;9.756;2023-07-29T14:32:10;0.80;;;0.80;;
14592;SDS011;7383;52.354;9.756;2023-07-29T14:34:36;0.60;;;0.60;;
14592;SDS011;7383;52.354;9.756;2023-07-29T14:37:03;0.73;;;0.73;;
14592;SDS011;7383;52.354;9.756;2023-07-29T14:39:30;0.60;;;0.60;;
14592;SDS011;7383;52.354;9.756;2023-07-29T14:41:58;1.05;;;0.88;;
14592;SDS011;7383;52.354;9.756;2023-07-29T14:44:25;0.80;;;0.80;;
14592;SDS011;7383;52.354;9.756;2023-07-29T14:46:51;0.75;;;0.70;;
14592;SDS011;7383;52.354;9.756;2023-07-29T14:49:18;0.63;;;0.63;;
14592;SDS011;7383;52.354;9.756;2023-07-29T14:51:45;0.50;;;0.50;;
14592;SDS011;7383;52.354;9.756;2023-07-29T14:54:11;1.08;;;0.88;;
14592;SDS011;7383;52.354;9.756;2023-07-29T14:56:53;0.90;;;0.90;;
14592;SDS011;7383;52.354;9.756;2023-07-29T14:59:22;0.63;;;0.63;;
14592;SDS011;7383;52.354;9.756;2023-07-29T15:01:48;0.70;;;0.70;;
14592;SDS011;7383;52.354;9.756;2023-07-29T15:04:15;0.70;;;0.70;;
14592;SDS011;7383;52.354;9.756;2023-07-29T15:06:41;0.80;;;0.80;;
14592;SDS011;7383;52.354;9.756;2023-07-29T15:09:08;0.70;;;0.70;;
14592;SDS011;7383;52.354;9.756;2023-07-29T15:11:35;0.50;;;0.50;;
14592;SDS011;7383;52.354;9.756;2023-07-29T15:14:01;0.60;;;0.60;;
14592;SDS011;7383;52.354;9.756;2023-07-29T15:16:30;0.65;;;0.60;;
14592;SDS011;7383;52.354;9.756;2023-07-29T15:18:58;0.60;;;0.60;;
14592;SDS011;7383;52.354;9.756;2023-07-29T15:21:25;1.10;;;0.90;;